Time;durP1;ratioP1;P1;durP2;ratioP2;P2;SDS_P1;SDS_P2;PMS_P1;PMS_P2;Temp;Humidity;BMP_temperature;BMP_pressure;BME280_temperature;BME280_humidity;BME280_pressure;Samples;Min_cycle;Max_cycle;Signal;HPM_P1;HPM_P2
2021/12/28 00:02:15;;;;;;;32.85;13.32;;;8.90;99.90;;;;;;5019941;28;20488;-93
2021/12/28 00:04:44;;;;;;;32.95;12.82;;;8.50;99.90;;;;;;5018850;28;20069;-92
2021/12/28 00:07:17;;;;;;;32.10;11.95;;;8.90;99.90;;;;;;5019031;28;20045;-92
2021/12/28 00:09:44;;;;;;;28.25;10.85;;;8.70;99.90;;;;;;5020792;28;20057;-93
2021/12/28 00:12:17;;;;;;;25.73;12.60;;;9.10;99.90;;;;;;5019700;28;20488;-93
2021/12/28 00:15:05;;;;;;;29.02;11.95;;;8.80;99.90;;;;;;5019960;28;20544;-92
2021/12/28 00:20:43;;;;;;;23.65;10.43;;;8.70;99.90;;;;;;5020519;28;20439;-92
2021/12/28 00:23:17;;;;;;;24.45;10.27;;;9.00;99.90;;;;;;5013122;28;20056;-92
2021/12/28 00:25:48;;;;;;;22.88;9.93;;;8.20;99.90;;;;;;5019234;28;20056;-93
2021/12/28 00:28:18;;;;;;;23.83;10.40;;;8.80;99.90;;;;;;5018888;28;20053;-91
2021/12/28 00:30:58;;;;;;;22.33;10.48;;;8.70;99.90;;;;;;5019817;28;20113;-92
2021/12/28 00:33:26;;;;;;;21.90;10.52;;;8.80;99.90;;;;;;5020073;28;20072;-92
2021/12/28 00:35:59;;;;;;;26.77;10.88;;;8.80;99.90;;;;;;5020887;28;20085;-92
2021/12/28 00:38:32;;;;;;;28.70;11.45;;;9.00;99.90;;;;;;5037066;28;20045;-91
2021/12/28 00:41:03;;;;;;;18.00;9.20;;;8.60;99.90;;;;;;5037270;28;20054;-89
2021/12/28 00:43:46;;;;;;;;;;;;;;;;;;;;;
2021/12/28 00:46:29;;;;;;;28.13;11.20;;;9.40;99.90;;;;;;5018412;28;20136;-91
2021/12/28 00:48:58;;;;;;;20.73;9.35;;;9.30;99.90;;;;;;5019485;28;20049;-93
2021/12/28 00:51:47;;;;;;;23.52;9.48;;;9.00;99.90;;;;;;5010800;28;20062;-92
2021/12/28 00:54:23;;;;;;;18.77;9.32;;;8.80;99.90;;;;;;4999771;28;20046;-93
2021/12/28 00:56:55;;;;;;;21.05;10.02;;;9.20;99.90;;;;;;4998532;28;20046;-93
2021/12/28 00:59:35;;;;;;;;;;;;;;;;;;;;;
2021/12/28 01:02:08;;;;;;;22.52;10.93;;;8.70;99.90;;;;;;4998884;28;20046;-91
2021/12/28 01:04:48;;;;;;;27.15;10.68;;;8.70;99.90;;;;;;4999033;28;20101;-92
2021/12/28 01:07:27;;;;;;;22.20;10.65;;;7.30;99.90;;;;;;4999715;28;20409;-92
2021/12/28 01:10:06;;;;;;;;;;;;;;;;;;;;;
2021/12/28 01:12:33;;;;;;;;;;;8.70;99.90;;;;;;5000752;28;19922;-93
2021/12/28 01:15:13;;;;;;;;;;;;;;;;;;;;;
2021/12/28 01:18:10;;;;;;;21.25;9.85;;;8.80;99.90;;;;;;5019097;28;20415;-92
2021/12/28 01:20:42;;;;;;;25.80;10.18;;;8.20;99.90;;;;;;5018688;28;20121;-92
2021/12/28 01:23:20;;;;;;;24.55;11.00;;;8.60;99.90;;;;;;5019169;28;20508;-92
2021/12/28 01:25:49;;;;;;;22.85;11.98;;;8.80;99.90;;;;;;5019171;28;20050;-91
2021/12/28 01:28:19;;;;;;;26.77;10.55;;;8.80;99.90;;;;;;5019872;28;20064;-91
2021/12/28 01:30:50;;;;;;;25.63;10.57;;;8.90;99.90;;;;;;5018690;28;20046;-91
2021/12/28 01:33:22;;;;;;;18.35;10.70;;;8.80;99.90;;;;;;5018335;28;20048;-93
2021/12/28 01:35:58;;;;;;;27.85;12.30;;;8.90;99.90;;;;;;5017768;28;20054;-92
2021/12/28 01:38:45;;;;;;;24.63;11.35;;;7.30;99.90;;;;;;5019389;28;20053;-92
2021/12/28 01:41:22;;;;;;;29.10;12.70;;;8.90;99.90;;;;;;4959159;29;20047;-91
2021/12/28 01:44:15;;;;;;;19.98;9.20;;;8.70;99.90;;;;;;4958525;29;20057;-92
2021/12/28 01:46:44;;;;;;;23.30;9.80;;;9.10;99.90;;;;;;4962933;28;20051;-92
2021/12/28 01:49:17;;;;;;;24.05;10.43;;;8.90;99.90;;;;;;5019015;28;20057;-92
2021/12/28 01:51:44;;;;;;;19.10;10.25;;;8.80;99.90;;;;;;5018005;28;20045;-93
2021/12/28 01:54:23;;;;;;;22.42;10.52;;;8.80;99.90;;;;;;5018238;28;20061;-92
2021/12/28 01:56:59;;;;;;;27.63;12.43;;;8.70;99.90;;;;;;5018140;28;20054;-92
2021/12/28 01:59:31;;;;;;;25.08;11.98;;;8.80;99.90;;;;;;5018312;28;20057;-93
2021/12/28 02:01:59;;;;;;;26.20;12.73;;;8.70;99.90;;;;;;5016503;28;20054;-93
2021/12/28 02:04:31;;;;;;;30.58;12.25;;;8.50;99.90;;;;;;5016403;28;20045;-93
2021/12/28 02:07:02;;;;;;;21.48;11.57;;;8.80;99.90;;;;;;5016988;28;20153;-92
2021/12/28 02:09:39;;;;;;;23.05;12.05;;;8.60;99.90;;;;;;5019788;28;20508;-92
2021/12/28 02:12:10;;;;;;;21.40;11.52;;;9.00;99.90;;;;;;5021576;28;20132;-92
2021/12/28 02:14:44;;;;;;;27.50;11.65;;;8.50;99.90;;;;;;5022751;28;20056;-92
2021/12/28 02:17:14;;;;;;;30.60;13.00;;;8.50;99.90;;;;;;5021945;28;20076;-91
2021/12/28 02:19:43;;;;;;;27.67;12.07;;;8.50;99.90;;;;;;5022128;28;20140;-92
2021/12/28 02:22:11;;;;;;;33.05;12.52;;;8.40;99.90;;;;;;5020136;28;20517;-93
2021/12/28 02:24:39;;;;;;;31.55;12.45;;;8.40;99.90;;;;;;5019218;28;20045;-92
2021/12/28 02:27:08;;;;;;;31.23;13.10;;;8.40;99.90;;;;;;5019280;28;20413;-92
2021/12/28 02:29:35;;;;;;;;;;;8.60;99.90;;;;;;5020404;28;20054;-93
2021/12/28 02:32:04;;;;;;;29.35;11.68;;;8.40;99.90;;;;;;5020378;28;19928;-93
2021/12/28 02:34:32;;;;;;;28.35;13.30;;;8.50;99.90;;;;;;5034830;28;20609;-92
2021/12/28 02:36:59;;;;;;;28.75;12.77;;;8.40;99.90;;;;;;5037415;28;20050;-91
2021/12/28 02:39:31;;;;;;;28.70;13.50;;;8.50;99.90;;;;;;5037322;28;20050;-90
2021/12/28 02:41:58;;;;;;;32.17;13.65;;;9.00;99.90;;;;;;5030197;28;20049;-93
2021/12/28 02:44:25;;;;;;;35.15;13.57;;;8.70;99.90;;;;;;5019916;28;20056;-93
2021/12/28 02:46:57;;;;;;;35.20;12.98;;;8.60;99.90;;;;;;5012293;28;20053;-93
2021/12/28 02:49:27;;;;;;;32.38;12.60;;;8.70;99.90;;;;;;4999962;28;20057;-93
2021/12/28 02:51:58;;;;;;;33.70;13.98;;;8.60;99.90;;;;;;4999925;28;20046;-93
2021/12/28 02:54:30;;;;;;;33.85;13.30;;;8.70;99.90;;;;;;5000489;28;20073;-94
2021/12/28 02:56:59;;;;;;;39.97;13.45;;;8.70;99.90;;;;;;4999584;28;20050;-92
2021/12/28 02:59:40;;;;;;;;;;;;;;;;;;;;;
2021/12/28 03:02:14;;;;;;;32.80;14.63;;;8.50;99.90;;;;;;5000629;28;20050;-93
2021/12/28 03:04:45;;;;;;;29.50;12.95;;;8.60;99.90;;;;;;5000656;28;20547;-92
2021/12/28 03:07:17;;;;;;;34.00;14.32;;;8.50;99.90;;;;;;5018000;28;20118;-92
2021/12/28 03:09:50;;;;;;;29.63;12.43;;;8.40;99.90;;;;;;5020423;28;20046;-93
2021/12/28 03:12:19;;;;;;;26.20;12.00;;;8.40;99.90;;;;;;5020623;28;20518;-91
2021/12/28 03:14:50;;;;;;;34.03;12.45;;;8.60;99.90;;;;;;5020104;28;20461;-92
2021/12/28 03:17:22;;;;;;;24.55;12.27;;;8.60;99.90;;;;;;5020087;28;20069;-92
2021/12/28 03:19:51;;;;;;;31.10;11.25;;;8.60;99.90;;;;;;5018469;28;20503;-92
2021/12/28 03:22:30;;;;;;;;;;;;;;;;;;;;;
2021/12/28 03:25:00;;;;;;;26.00;10.80;;;9.00;99.90;;;;;;5019169;28;19928;-92
2021/12/28 03:27:30;;;;;;;26.92;11.43;;;8.50;99.90;;;;;;5019222;28;20050;-93
2021/12/28 03:29:57;;;;;;;30.67;12.07;;;8.50;99.90;;;;;;5018284;28;20057;-92
2021/12/28 03:32:24;;;;;;;29.08;12.35;;;8.60;99.90;;;;;;5017875;28;20061;-91
2021/12/28 03:34:51;;;;;;;26.13;11.65;;;8.50;99.90;;;;;;5018513;28;20121;-92
2021/12/28 03:37:19;;;;;;;32.50;13.40;;;8.50;99.90;;;;;;5018313;28;20436;-92
2021/12/28 03:39:46;;;;;;;29.52;11.80;;;8.50;99.90;;;;;;5018170;28;20050;-92
2021/12/28 03:42:17;;;;;;;29.50;11.40;;;8.90;99.90;;;;;;5018624;28;20046;-93
2021/12/28 03:44:46;;;;;;;31.65;12.38;;;8.40;99.90;;;;;;5018532;28;20054;-93
2021/12/28 03:47:17;;;;;;;27.52;13.00;;;8.40;99.90;;;;;;5017733;28;20061;-92
2021/12/28 03:49:46;;;;;;;34.15;13.35;;;8.40;99.90;;;;;;5018765;28;20394;-92
2021/12/28 03:52:13;;;;;;;30.35;12.82;;;8.00;99.90;;;;;;5018243;28;20519;-93
2021/12/28 03:54:40;;;;;;;32.80;13.25;;;8.70;99.90;;;;;;5018544;28;20050;-94
2021/12/28 03:57:21;;;;;;;26.17;11.52;;;8.40;99.90;;;;;;5017858;28;20141;-93
2021/12/28 03:59:48;;;;;;;29.05;11.85;;;8.40;99.90;;;;;;5018377;28;20049;-91
2021/12/28 04:02:23;;;;;;;28.30;11.57;;;8.40;99.90;;;;;;5017317;28;20492;-92
2021/12/28 04:04:56;;;;;;;27.48;12.43;;;8.50;99.90;;;;;;5017716;28;20057;-92
2021/12/28 04:07:30;;;;;;;29.42;11.75;;;8.60;99.90;;;;;;5017371;28;20483;-92
2021/12/28 04:10:01;;;;;;;31.98;13.30;;;8.50;99.90;;;;;;5018063;28;20455;-92
2021/12/28 04:12:33;;;;;;;35.72;11.70;;;8.50;99.90;;;;;;5017683;28;20056;-92
2021/12/28 04:15:06;;;;;;;35.10;13.75;;;8.70;99.90;;;;;;5018013;28;20118;-92
2021/12/28 04:17:37;;;;;;;33.60;12.85;;;8.20;99.90;;;;;;5018257;28;20104;-93
2021/12/28 04:20:10;;;;;;;44.88;13.32;;;8.60;99.90;;;;;;5017938;28;20440;-91
2021/12/28 04:22:37;;;;;;;33.33;13.20;;;8.60;99.90;;;;;;5017494;28;20100;-91
2021/12/28 04:25:06;;;;;;;35.80;14.27;;;8.60;99.90;;;;;;5018554;28;20050;-92
2021/12/28 04:27:35;;;;;;;29.60;12.60;;;8.50;99.90;;;;;;5017657;28;20420;-94
2021/12/28 04:30:07;;;;;;;46.03;14.15;;;8.40;99.90;;;;;;5028719;28;20117;-91
2021/12/28 04:32:37;;;;;;;35.97;12.20;;;8.50;99.90;;;;;;5036291;28;20129;-91
2021/12/28 04:35:10;;;;;;;31.63;12.57;;;8.60;99.90;;;;;;5037087;28;20098;-91
2021/12/28 04:37:43;;;;;;;34.83;12.48;;;8.40;99.90;;;;;;5028824;28;20054;-92
2021/12/28 04:40:18;;;;;;;33.63;12.50;;;8.40;99.90;;;;;;5018274;28;20057;-92
2021/12/28 04:42:52;;;;;;;28.02;11.27;;;8.50;99.90;;;;;;5017239;28;20054;-92
2021/12/28 04:45:25;;;;;;;28.27;12.25;;;8.90;99.90;;;;;;5017526;28;20046;-93
2021/12/28 04:50:20;;;;;;;33.22;13.35;;;8.40;99.90;;;;;;5020160;22;20128;-92
2021/12/28 04:52:52;;;;;;;31.88;11.98;;;8.40;99.90;;;;;;5017312;28;20535;-91
2021/12/28 04:55:22;;;;;;;30.83;13.80;;;8.10;99.90;;;;;;5017369;28;20060;-92
2021/12/28 04:57:53;;;;;;;30.75;13.27;;;8.60;99.90;;;;;;5016798;28;20046;-92
2021/12/28 05:00:29;;;;;;;30.40;12.88;;;8.40;99.90;;;;;;5016835;28;20400;-93
2021/12/28 05:02:58;;;;;;;42.33;14.95;;;8.80;99.90;;;;;;5016912;28;20431;-93
2021/12/28 05:05:28;;;;;;;40.67;14.73;;;8.30;99.90;;;;;;5016940;28;20046;-93
2021/12/28 05:08:00;;;;;;;29.65;13.73;;;8.70;99.90;;;;;;5016800;28;20050;-92
2021/12/28 05:10:29;;;;;;;32.40;14.30;;;8.30;99.90;;;;;;5016709;28;20057;-93
2021/12/28 05:13:02;;;;;;;35.70;15.23;;;8.30;99.90;;;;;;5017469;28;20382;-93
2021/12/28 05:15:32;;;;;;;36.55;13.60;;;8.60;99.90;;;;;;5017092;28;20451;-92
2021/12/28 05:17:59;;;;;;;37.53;13.75;;;8.40;99.90;;;;;;5017252;28;20105;-91
2021/12/28 05:20:27;;;;;;;32.08;13.25;;;8.70;99.90;;;;;;5016474;28;20056;-92
2021/12/28 05:22:54;;;;;;;25.33;13.35;;;8.70;99.90;;;;;;5017153;28;20054;-93
2021/12/28 05:25:22;;;;;;;28.38;12.90;;;8.50;99.90;;;;;;5017071;28;20137;-93
2021/12/28 05:27:50;;;;;;;35.28;13.50;;;8.40;99.90;;;;;;5015807;28;20049;-93
2021/12/28 05:30:28;;;;;;;30.55;13.63;;;8.70;99.90;;;;;;5016089;28;20142;-92
2021/12/28 05:32:58;;;;;;;33.17;12.50;;;9.20;99.90;;;;;;5016541;28;20562;-93
2021/12/28 05:35:27;;;;;;;29.58;12.98;;;7.70;99.90;;;;;;5016367;28;20070;-93
2021/12/28 05:37:55;;;;;;;31.00;13.20;;;7.10;99.90;;;;;;5016411;28;20057;-93
2021/12/28 05:40:22;;;;;;;26.95;12.68;;;8.40;99.90;;;;;;5016958;28;20053;-93
2021/12/28 05:42:57;;;;;;;35.55;14.93;;;8.50;99.90;;;;;;5017641;28;20077;-93
2021/12/28 05:45:28;;;;;;;35.13;12.93;;;8.40;99.90;;;;;;5020258;28;20160;-93
2021/12/28 05:47:55;;;;;;;26.02;11.93;;;8.40;99.90;;;;;;5020080;28;20060;-92
2021/12/28 05:50:29;;;;;;;27.48;12.80;;;8.70;99.90;;;;;;5020541;28;20077;-93
2021/12/28 05:53:05;;;;;;;29.75;13.75;;;8.60;99.90;;;;;;5020914;28;20481;-93
2021/12/28 05:55:32;;;;;;;34.65;13.10;;;8.60;99.90;;;;;;5021102;28;20112;-94
2021/12/28 05:58:01;;;;;;;29.40;12.63;;;8.40;99.90;;;;;;5020435;28;20492;-94
2021/12/28 06:00:30;;;;;;;26.13;12.65;;;8.40;99.90;;;;;;5020183;28;20052;-93
2021/12/28 06:02:58;;;;;;;29.52;12.65;;;8.40;99.90;;;;;;5019344;28;20393;-93
2021/12/28 06:05:26;;;;;;;27.77;11.90;;;8.60;99.90;;;;;;5020091;28;20508;-93
2021/12/28 06:07:54;;;;;;;25.30;11.57;;;8.70;99.90;;;;;;5020097;28;20053;-93
2021/12/28 06:10:21;;;;;;;27.35;12.52;;;8.50;99.90;;;;;;5020344;28;20054;-93
2021/12/28 06:12:51;;;;;;;26.42;12.27;;;8.60;99.90;;;;;;5020911;28;20042;-93
2021/12/28 06:15:20;;;;;;;27.20;12.23;;;8.50;99.90;;;;;;5020733;28;20137;-93
2021/12/28 06:17:49;;;;;;;36.67;14.27;;;8.60;99.90;;;;;;5020889;28;20046;-93
2021/12/28 06:20:18;;;;;;;100.30;17.33;;;8.40;99.90;;;;;;5020814;28;20050;-93
2021/12/28 06:22:47;;;;;;;99.32;16.02;;;8.50;99.90;;;;;;5020703;28;20069;-93
2021/12/28 06:25:16;;;;;;;39.75;12.63;;;8.40;99.90;;;;;;5021810;28;20050;-92
2021/12/28 06:27:43;;;;;;;;;;;8.30;99.90;;;;;;5037998;28;20050;-93
2021/12/28 06:30:13;;;;;;;21.08;11.38;;;8.60;99.90;;;;;;5037778;28;19936;-91
2021/12/28 06:32:41;;;;;;;43.25;13.30;;;8.60;99.90;;;;;;5038798;28;20109;-93
2021/12/28 06:35:13;;;;;;;30.17;12.02;;;8.60;99.90;;;;;;5026368;28;20057;-94
2021/12/28 06:37:41;;;;;;;36.58;11.75;;;8.60;99.90;;;;;;5021131;28;20101;-93
2021/12/28 06:40:11;;;;;;;21.42;11.30;;;8.60;99.90;;;;;;5020665;28;20046;-93
2021/12/28 06:42:41;;;;;;;48.53;13.98;;;8.70;99.90;;;;;;5018632;28;20062;-93
2021/12/28 06:45:09;;;;;;;64.55;14.40;;;8.70;99.90;;;;;;5000975;28;20051;-93
2021/12/28 06:47:40;;;;;;;132.83;16.43;;;8.70;99.90;;;;;;5000913;28;20046;-94
2021/12/28 06:50:12;;;;;;;45.45;12.65;;;8.60;99.90;;;;;;5000293;28;20074;-93
2021/12/28 06:52:39;;;;;;;22.75;10.93;;;8.80;99.90;;;;;;5000737;28;20089;-94
2021/12/28 06:55:10;;;;;;;23.20;11.80;;;8.50;99.90;;;;;;4999095;28;20051;-93
2021/12/28 06:57:39;;;;;;;21.25;11.68;;;8.70;99.90;;;;;;5019094;28;20064;-93
2021/12/28 07:00:15;;;;;;;20.58;10.13;;;8.80;99.90;;;;;;5020233;28;20060;-94
2021/12/28 07:02:44;;;;;;;20.23;10.57;;;8.90;99.90;;;;;;5020339;28;20103;-92
2021/12/28 07:05:17;;;;;;;22.17;10.45;;;8.70;99.90;;;;;;5019790;28;20073;-92
2021/12/28 07:07:45;;;;;;;19.40;10.05;;;8.70;99.90;;;;;;5020115;28;20054;-91
2021/12/28 07:10:20;;;;;;;24.10;10.13;;;7.90;99.90;;;;;;5020138;28;20050;-92
2021/12/28 07:12:54;;;;;;;22.00;11.43;;;8.70;99.90;;;;;;5019640;28;20054;-93
2021/12/28 07:15:22;;;;;;;22.73;11.05;;;9.00;99.90;;;;;;5019506;28;20065;-94
2021/12/28 07:17:49;;;;;;;22.60;10.73;;;8.80;99.90;;;;;;5019984;28;20061;-93
2021/12/28 07:20:21;;;;;;;27.20;11.52;;;8.70;99.90;;;;;;5019547;28;20045;-91
2021/12/28 07:22:48;;;;;;;24.90;10.75;;;8.40;99.90;;;;;;5019874;28;20110;-92
2021/12/28 07:25:17;;;;;;;27.70;11.13;;;8.70;99.90;;;;;;5019070;28;20064;-93
2021/12/28 07:27:46;;;;;;;22.13;11.07;;;9.00;99.90;;;;;;5019504;28;20054;-93
2021/12/28 07:30:14;;;;;;;;;;;7.60;99.90;;;;;;5020114;28;20489;-93
2021/12/28 07:32:45;;;;;;;17.58;9.15;;;9.10;99.90;;;;;;5019332;28;19928;-93
2021/12/28 07:35:12;;;;;;;22.33;10.75;;;7.50;99.90;;;;;;5019188;28;20453;-92
2021/12/28 07:37:42;;;;;;;25.73;11.00;;;8.90;99.90;;;;;;5020359;28;20053;-93
2021/12/28 07:40:10;;;;;;;24.05;10.57;;;8.70;99.90;;;;;;5019293;28;20056;-92
2021/12/28 07:42:58;;;;;;;28.52;11.35;;;8.50;99.90;;;;;;5019177;28;20045;-93
2021/12/28 07:45:26;;;;;;;22.30;10.52;;;8.60;99.90;;;;;;5019690;28;20058;-93
2021/12/28 07:47:53;;;;;;;21.85;10.23;;;8.60;99.90;;;;;;5019498;28;20077;-93
2021/12/28 07:50:21;;;;;;;20.23;9.85;;;7.40;99.90;;;;;;5019617;28;20058;-93
2021/12/28 07:52:55;;;;;;;17.40;9.43;;;8.90;99.90;;;;;;5019512;28;20085;-93
2021/12/28 07:55:22;;;;;;;22.77;10.18;;;9.10;99.90;;;;;;5018624;28;20108;-93
2021/12/28 07:57:52;;;;;;;19.30;9.25;;;8.80;99.90;;;;;;5018948;28;20050;-93
2021/12/28 08:00:24;;;;;;;18.40;9.20;;;8.80;99.90;;;;;;5019306;28;20060;-93
2021/12/28 08:02:51;;;;;;;22.48;10.13;;;9.10;99.90;;;;;;5019254;28;20056;-92
2021/12/28 08:05:22;;;;;;;23.52;10.07;;;8.80;99.90;;;;;;5018504;28;20547;-93
2021/12/28 08:07:57;;;;;;;21.92;10.13;;;8.70;99.90;;;;;;5019333;28;20054;-93
2021/12/28 08:10:24;;;;;;;28.73;14.73;;;7.50;99.90;;;;;;5018972;28;20108;-93
2021/12/28 08:12:54;;;;;;;21.20;10.07;;;8.70;99.90;;;;;;5018795;28;20061;-92
2021/12/28 08:15:22;;;;;;;25.67;10.75;;;10.10;99.90;;;;;;5019218;28;20048;-92
2021/12/28 08:17:49;;;;;;;22.80;10.88;;;9.00;99.90;;;;;;5018439;28;20077;-92
2021/12/28 08:20:18;;;;;;;24.42;10.20;;;8.70;99.90;;;;;;5018941;28;20052;-93
2021/12/28 08:22:56;;;;;;;18.02;9.20;;;8.80;99.90;;;;;;5026778;28;20065;-93
2021/12/28 08:25:36;;;;;;;31.20;10.70;;;9.00;99.90;;;;;;5036936;28;20038;-92
2021/12/28 08:28:06;;;;;;;20.88;9.45;;;8.80;99.90;;;;;;5037842;28;20096;-92
2021/12/28 08:30:41;;;;;;;19.63;8.93;;;9.00;99.90;;;;;;5030605;28;20052;-93
2021/12/28 08:33:28;;;;;;;21.13;9.57;;;8.70;99.90;;;;;;5021265;28;20050;-92
2021/12/28 08:35:58;;;;;;;26.15;10.23;;;8.80;99.90;;;;;;5018996;28;20053;-93
2021/12/28 08:38:29;;;;;;;21.25;9.98;;;8.60;99.90;;;;;;5019022;28;20064;-94
2021/12/28 08:40:59;;;;;;;20.65;9.27;;;9.20;99.90;;;;;;5018017;28;20064;-94
2021/12/28 08:43:27;;;;;;;20.25;9.38;;;9.10;99.90;;;;;;5017363;28;20494;-94
2021/12/28 08:45:54;;;;;;;23.25;10.55;;;9.30;99.90;;;;;;5018635;28;20506;-93
2021/12/28 08:48:23;;;;;;;19.92;9.05;;;9.20;99.90;;;;;;5017587;28;20049;-95
2021/12/28 08:50:50;;;;;;;16.93;8.67;;;9.10;99.90;;;;;;5018600;28;20129;-94
2021/12/28 08:53:27;;;;;;;15.65;7.60;;;9.00;99.90;;;;;;5018525;28;20050;-94
2021/12/28 08:55:55;;;;;;;14.65;6.40;;;9.10;99.90;;;;;;5018571;28;20046;-94
2021/12/28 08:58:26;;;;;;;12.57;7.28;;;9.10;99.90;;;;;;5018314;28;20095;-94
2021/12/28 09:00:53;;;;;;;18.67;8.13;;;9.10;99.90;;;;;;5019017;28;20048;-93
2021/12/28 09:03:21;;;;;;;16.45;8.30;;;7.90;99.90;;;;;;5018131;28;20049;-93
2021/12/28 09:05:49;;;;;;;21.45;10.70;;;8.90;99.90;;;;;;5016954;28;20050;-94
2021/12/28 09:08:18;;;;;;;17.25;9.57;;;9.00;99.90;;;;;;5018030;28;20144;-94
2021/12/28 09:10:48;;;;;;;19.10;9.10;;;8.80;99.90;;;;;;5018268;28;20046;-93
2021/12/28 09:13:20;;;;;;;14.93;7.07;;;8.90;99.90;;;;;;5017973;28;20045;-94
2021/12/28 09:15:49;;;;;;;15.38;8.82;;;9.20;99.90;;;;;;5017610;28;20056;-94
2021/12/28 09:18:17;;;;;;;9.15;4.78;;;8.90;99.90;;;;;;5017799;28;20053;-94
2021/12/28 09:20:48;;;;;;;12.02;5.18;;;8.90;99.90;;;;;;5017729;28;20053;-93
2021/12/28 09:23:16;;;;;;;8.60;4.60;;;9.30;99.90;;;;;;5018330;28;20097;-94
2021/12/28 09:25:49;;;;;;;8.93;5.35;;;8.90;99.90;;;;;;5018177;28;20100;-93
2021/12/28 09:28:19;;;;;;;8.38;4.55;;;9.50;99.90;;;;;;5018070;28;20053;-93
2021/12/28 09:30:48;;;;;;;8.95;4.47;;;8.80;99.90;;;;;;5017048;28;20054;-93
2021/12/28 09:33:16;;;;;;;11.23;4.57;;;8.90;99.90;;;;;;5017713;28;20045;-95
2021/12/28 09:35:45;;;;;;;8.15;4.50;;;8.90;99.90;;;;;;5018620;28;20050;-93
2021/12/28 09:38:12;;;;;;;8.52;3.90;;;8.80;99.90;;;;;;5017455;28;20054;-93
2021/12/28 09:40:42;;;;;;;8.15;4.65;;;8.70;99.90;;;;;;5018709;28;20056;-94
2021/12/28 09:43:11;;;;;;;12.02;4.45;;;8.90;99.90;;;;;;5018144;28;20042;-94
2021/12/28 09:45:38;;;;;;;;;;;8.70;99.90;;;;;;5017672;28;20069;-95
2021/12/28 09:48:20;;;;;;;11.60;4.63;;;8.40;99.90;;;;;;5017720;28;20012;-94
2021/12/28 09:50:50;;;;;;;17.67;5.32;;;8.30;99.90;;;;;;5018504;28;20050;-96
2021/12/28 09:53:43;;;;;;;12.25;6.40;;;8.70;99.90;;;;;;5017537;28;20069;-94
2021/12/28 09:56:19;;;;;;;12.85;6.28;;;8.80;99.90;;;;;;4991189;28;20133;-95
2021/12/28 09:58:51;;;;;;;13.18;7.43;;;8.60;99.90;;;;;;5018154;28;20112;-93
2021/12/28 10:02:23;;;;;;;;;;;;;;;;;;;;;
2021/12/28 10:05:16;;;;;;;16.92;7.80;;;8.80;99.90;;;;;;5009379;28;20058;-95
2021/12/28 10:08:06;;;;;;;16.17;7.35;;;8.80;99.90;;;;;;5017272;28;20046;-94
2021/12/28 10:10:36;;;;;;;13.55;7.78;;;10.00;99.90;;;;;;5018172;28;20052;-93
2021/12/28 10:13:29;;;;;;;16.40;8.63;;;9.00;99.90;;;;;;5019409;28;20042;-94
2021/12/28 10:19:16;;;;;;;14.60;7.95;;;8.80;99.90;;;;;;5020154;28;20053;-94
2021/12/28 10:22:29;;;;;;;14.27;8.60;;;9.00;99.90;;;;;;5012184;28;20049;-93
2021/12/28 10:25:34;;;;;;;;;;;;;;;;;;;;;
2021/12/28 10:28:08;;;;;;;20.00;9.80;;;9.10;99.90;;;;;;5021014;28;20109;-95
2021/12/28 10:30:52;;;;;;;21.33;11.23;;;9.00;99.90;;;;;;5022579;28;20046;-95
2021/12/28 10:33:58;;;;;;;20.17;10.95;;;10.50;99.90;;;;;;5021326;28;20073;-94
2021/12/28 10:39:45;;;;;;;28.27;13.63;;;9.10;99.90;;;;;;5013978;28;20054;-96
2021/12/28 10:43:09;;;;;;;21.33;12.75;;;9.30;99.90;;;;;;5002072;28;20137;-93
2021/12/28 10:45:54;;;;;;;27.90;14.32;;;9.40;99.90;;;;;;5002653;28;20065;-94
2021/12/28 10:48:36;;;;;;;25.05;16.55;;;9.20;99.90;;;;;;5001669;28;20062;-93
2021/12/28 10:51:12;;;;;;;23.40;15.07;;;9.00;99.90;;;;;;5001670;28;20095;-95
2021/12/28 10:54:00;;;;;;;27.10;15.95;;;9.00;99.90;;;;;;5002503;28;20046;-93
2021/12/28 10:59:34;;;;;;;25.85;16.42;;;9.20;99.90;;;;;;5020007;28;20428;-92
2021/12/28 11:02:21;;;;;;;;;;;;;;;;;;;;;
2021/12/28 11:11:08;;;;;;;24.55;15.73;;;9.10;99.90;;;;;;5019505;28;20064;-94
2021/12/28 11:13:38;;;;;;;22.95;15.75;;;8.90;99.90;;;;;;5021126;28;20049;-95
2021/12/28 11:16:29;;;;;;;21.60;14.30;;;7.40;99.90;;;;;;5021059;28;20045;-94
2021/12/28 11:22:07;;;;;;;27.55;16.10;;;7.40;99.90;;;;;;5017932;28;20058;-94
2021/12/28 11:31:01;;;;;;;20.27;14.85;;;8.80;99.90;;;;;;5022326;28;20085;-93
2021/12/28 11:33:45;;;;;;;23.15;13.82;;;8.70;99.90;;;;;;5024983;28;20046;-93
2021/12/28 11:42:55;;;;;;;18.33;12.20;;;9.10;99.90;;;;;;4942261;29;20056;-94
2021/12/28 11:45:38;;;;;;;19.05;12.52;;;9.20;99.90;;;;;;5003513;28;20390;-95
2021/12/28 11:48:52;;;;;;;18.77;13.30;;;9.60;99.90;;;;;;5022209;28;20073;-94
2021/12/28 11:51:48;;;;;;;21.05;13.93;;;8.50;99.90;;;;;;5003627;28;20046;-92
2021/12/28 11:54:27;;;;;;;14.88;10.52;;;9.00;99.90;;;;;;5000817;28;20105;-92
2021/12/28 11:57:08;;;;;;;14.73;11.48;;;9.00;99.90;;;;;;5004032;28;20069;-94
2021/12/28 12:00:04;;;;;;;;;;;;;;;;;;;;;
2021/12/28 12:02:54;;;;;;;16.77;12.57;;;10.70;99.90;;;;;;5001726;28;20073;-94
2021/12/28 12:05:29;;;;;;;15.70;11.75;;;9.30;99.90;;;;;;5003469;28;20077;-93
2021/12/28 12:08:32;;;;;;;13.70;11.35;;;9.00;99.90;;;;;;5003386;28;20050;-94
2021/12/28 12:11:32;;;;;;;12.35;10.20;;;9.30;99.90;;;;;;5040026;23;20046;-93
2021/12/28 12:14:00;;;;;;;16.38;8.20;;;9.40;99.90;;;;;;5020985;28;20128;-91
2021/12/28 12:17:09;;;;;;;10.60;8.85;;;8.90;99.90;;;;;;5035174;28;20061;-91
2021/12/28 12:19:59;;;;;;;11.65;9.57;;;9.30;99.90;;;;;;4940486;29;20064;-91
2021/12/28 12:22:49;;;;;;;13.23;10.27;;;9.40;99.90;;;;;;5029535;28;20056;-93
2021/12/28 12:25:33;;;;;;;13.00;9.13;;;9.00;99.90;;;;;;5023604;28;20049;-92
2021/12/28 12:28:31;;;;;;;15.07;9.85;;;9.00;99.90;;;;;;5020422;28;20045;-94
2021/12/28 12:31:20;;;;;;;12.27;9.05;;;9.30;99.90;;;;;;5021193;28;20459;-93
2021/12/28 12:34:01;;;;;;;11.45;9.27;;;9.10;99.90;;;;;;5021323;28;20054;-93
2021/12/28 12:36:41;;;;;;;15.38;9.48;;;9.00;99.90;;;;;;5019530;28;20084;-93
2021/12/28 12:42:52;;;;;;;12.00;8.77;;;9.00;99.90;;;;;;4998125;28;20056;-94
2021/12/28 12:46:16;;;;;;;;;;;;;;;;;;;;;
2021/12/28 12:49:42;;;;;;;8.73;6.60;;;9.10;99.90;;;;;;5000828;28;20057;-94
2021/12/28 12:52:52;;;;;;;;;;;;;;;;;;;;;
2021/12/28 12:55:43;;;;;;;8.10;5.63;;;9.40;99.90;;;;;;5001551;28;20046;-94
2021/12/28 12:58:30;;;;;;;;;;;;;;;;;;;;;
2021/12/28 13:01:05;;;;;;;9.27;5.50;;;9.10;99.90;;;;;;5001819;28;20046;-93
2021/12/28 13:03:39;;;;;;;6.75;4.88;;;9.30;99.90;;;;;;5001087;28;20074;-93
2021/12/28 13:09:24;;;;;;;15.13;9.90;;;8.50;99.90;;;;;;4999439;28;20062;-93
2021/12/28 13:11:54;;;;;;;7.90;4.93;;;9.40;99.90;;;;;;5002394;28;20118;-93
2021/12/28 13:14:46;;;;;;;7.82;4.45;;;9.50;99.90;;;;;;5001420;28;20104;-93
2021/12/28 13:23:26;;;;;;;9.77;4.68;;;9.40;99.90;;;;;;4998741;28;20450;-92
2021/12/28 13:26:15;;;;;;;8.32;4.82;;;9.30;99.90;;;;;;5002670;28;20501;-91
2021/12/28 13:29:19;;;;;;;;;;;;;;;;;;;;;
2021/12/28 13:31:48;;;;;;;13.32;5.82;;;9.60;99.90;;;;;;5001646;28;20081;-92
2021/12/28 13:34:34;;;;;;;;;;;9.50;99.90;;;;;;5003020;28;20141;-93
2021/12/28 13:37:08;;;;;;;13.43;7.13;;;9.40;99.90;;;;;;5004200;28;19932;-92
2021/12/28 13:40:21;;;;;;;15.95;7.82;;;9.30;99.90;;;;;;5003854;28;20050;-94
2021/12/28 13:43:06;;;;;;;15.68;8.75;;;8.20;99.90;;;;;;5002900;28;20042;-93
2021/12/28 13:45:57;;;;;;;;;;;;;;;;;;;;;
2021/12/28 13:48:50;;;;;;;14.13;8.30;;;9.10;99.90;;;;;;5002605;28;20050;-92
2021/12/28 13:51:25;;;;;;;22.13;8.50;;;9.80;99.90;;;;;;5004185;28;20138;-92
2021/12/28 13:54:24;;;;;;;18.60;8.32;;;7.60;99.90;;;;;;5001457;28;20046;-93
2021/12/28 13:57:06;;;;;;;;;;;9.00;99.90;;;;;;4999323;28;20062;-93
2021/12/28 14:00:04;;;;;;;;;;;;;;;;;;;;;
2021/12/28 14:02:54;;;;;;;14.73;9.70;;;9.20;99.90;;;;;;5004244;28;20042;-93
2021/12/28 14:05:48;;;;;;;;;;;;;;;;;;;;;
2021/12/28 14:08:27;;;;;;;14.88;8.75;;;9.00;99.90;;;;;;5013133;28;20089;-93
2021/12/28 14:11:44;;;;;;;14.60;10.07;;;9.00;99.90;;;;;;5018177;28;20042;-91
2021/12/28 14:14:17;;;;;;;16.67;9.50;;;9.00;99.90;;;;;;5001621;28;20053;-93
2021/12/28 14:17:18;;;;;;;15.93;9.82;;;9.00;99.90;;;;;;5015199;28;20057;-93
2021/12/28 14:22:58;;;;;;;22.88;14.40;;;8.90;99.90;;;;;;5082242;28;20052;-93
2021/12/28 14:28:59;;;;;;;24.95;15.50;;;9.20;99.90;;;;;;5060914;28;20052;-94
2021/12/28 14:32:16;;;;;;;22.58;16.17;;;9.10;99.90;;;;;;5085140;28;20051;-93
2021/12/28 14:35:16;;;;;;;25.63;16.75;;;8.80;99.90;;;;;;5078425;28;20052;-93
2021/12/28 14:44:12;;;;;;;23.75;16.02;;;9.00;99.90;;;;;;5042588;28;20056;-93
2021/12/28 14:50:13;;;;;;;17.58;12.23;;;8.80;99.90;;;;;;5018410;28;20046;-93
2021/12/28 14:52:59;;;;;;;18.17;11.68;;;8.80;99.90;;;;;;5047464;28;20127;-93
2021/12/28 14:55:41;;;;;;;15.63;9.93;;;8.80;99.90;;;;;;5043631;28;20060;-92